Time;durP1;ratioP1;P1;durP2;ratioP2;P2;SDS_P1;SDS_P2;PMS_P1;PMS_P2;Temp;Humidity;BMP_temperature;BMP_pressure;BME280_temperature;BME280_humidity;BME280_pressure;Samples;Min_cycle;Max_cycle;Signal;HPM_P1;HPM_P2
2022/08/04 00:02:06;;;;;;;3.03;1.95;;;;;;;;;;6303699;22;20686;-73
2022/08/04 00:04:40;;;;;;;5.18;2.03;;;;;;;;;;6304704;22;20151;-73
2022/08/04 00:07:24;;;;;;;4.82;2.53;;;;;;;;;;6304199;22;20190;-73
2022/08/04 00:09:59;;;;;;;2.25;2.05;;;;;;;;;;6304091;22;20611;-73
2022/08/04 00:12:27;;;;;;;3.97;2.40;;;;;;;;;;6302785;22;20503;-73
2022/08/04 00:14:54;;;;;;;6.82;2.70;;;;;;;;;;6276822;22;20599;-73
2022/08/04 00:17:22;;;;;;;4.20;2.63;;;;;;;;;;6304551;22;20613;-73
2022/08/04 00:19:50;;;;;;;4.18;2.47;;;;;;;;;;6306159;22;20622;-73
2022/08/04 00:22:18;;;;;;;4.85;2.38;;;;;;;;;;6306514;22;20198;-73
2022/08/04 00:24:43;;;;;;;6.85;2.70;;;;;;;;;;6306754;22;20599;-73
2022/08/04 00:27:09;;;;;;;3.00;2.20;;;;;;;;;;6306030;22;20186;-73
2022/08/04 00:29:36;;;;;;;3.47;2.20;;;;;;;;;;6305582;22;20588;-73
2022/08/04 00:32:02;;;;;;;6.20;2.42;;;;;;;;;;6306263;22;20265;-73
2022/08/04 00:34:28;;;;;;;5.63;2.60;;;;;;;;;;6305837;22;20144;-73
2022/08/04 00:36:54;;;;;;;5.35;2.45;;;;;;;;;;6278499;22;20143;-73
2022/08/04 00:39:19;;;;;;;4.03;2.58;;;;;;;;;;6278996;22;20151;-73
2022/08/04 00:42:03;;;;;;;6.05;2.53;;;;;;;;;;6305650;22;20547;-73
2022/08/04 00:44:47;;;;;;;2.72;1.88;;;;;;;;;;6305739;22;20163;-73
2022/08/04 00:47:21;;;;;;;4.97;2.05;;;;;;;;;;6305622;22;20143;-73
2022/08/04 00:49:55;;;;;;;3.70;2.13;;;;;;;;;;6305295;22;20154;-73
2022/08/04 00:52:36;;;;;;;3.22;2.30;;;;;;;;;;6306122;22;20481;-73
2022/08/04 00:55:04;;;;;;;5.78;2.65;;;;;;;;;;6305635;22;20197;-73
2022/08/04 00:57:29;;;;;;;6.07;2.90;;;;;;;;;;6306037;22;20147;-73
2022/08/04 01:00:07;;;;;;;4.05;2.47;;;;;;;;;;6305764;22;20151;-73
2022/08/04 01:02:51;;;;;;;4.80;2.25;;;;;;;;;;6305878;22;20345;-73
2022/08/04 01:05:16;;;;;;;5.72;2.53;;;;;;;;;;6304959;22;20147;-73
2022/08/04 01:07:48;;;;;;;4.17;2.13;;;;;;;;;;6305475;22;20151;-73
2022/08/04 01:10:32;;;;;;;4.82;2.40;;;;;;;;;;6305439;22;20423;-73
2022/08/04 01:12:57;;;;;;;4.85;2.65;;;;;;;;;;6305236;22;20143;-73
2022/08/04 01:15:29;;;;;;;3.30;2.35;;;;;;;;;;6276541;22;20197;-73
2022/08/04 01:18:02;;;;;;;3.35;2.30;;;;;;;;;;6303075;22;20827;-73
2022/08/04 01:20:31;;;;;;;4.80;2.67;;;;;;;;;;6304550;22;20168;-73
2022/08/04 01:23:14;;;;;;;7.32;2.90;;;;;;;;;;6304247;22;20186;-73
2022/08/04 01:25:39;;;;;;;7.32;2.58;;;;;;;;;;6305429;22;20132;-73
2022/08/04 01:28:04;;;;;;;3.50;2.33;;;;;;;;;;6305530;22;20497;-73
2022/08/04 01:30:31;;;;;;;3.92;2.80;;;;;;;;;;6304808;22;20440;-73
2022/08/04 01:33:01;;;;;;;3.60;2.05;;;;;;;;;;6305173;22;20357;-73
2022/08/04 01:35:45;;;;;;;3.67;2.10;;;;;;;;;;6305176;22;20213;-73
2022/08/04 01:38:16;;;;;;;4.68;3.08;;;;;;;;;;6305756;22;20613;-73
2022/08/04 01:40:41;;;;;;;5.68;2.65;;;;;;;;;;6305392;22;20171;-74
2022/08/04 01:43:08;;;;;;;5.90;2.15;;;;;;;;;;6278005;22;20166;-73
2022/08/04 01:45:35;;;;;;;6.50;2.45;;;;;;;;;;6305434;22;20140;-73
2022/08/04 01:48:01;;;;;;;3.90;2.60;;;;;;;;;;6305874;22;20205;-73
2022/08/04 01:50:32;;;;;;;4.07;2.40;;;;;;;;;;6304867;22;20281;-73
2022/08/04 01:52:57;;;;;;;6.03;2.85;;;;;;;;;;6305093;22;20460;-72
2022/08/04 01:55:23;;;;;;;6.78;3.60;;;;;;;;;;6277717;22;20233;-72
2022/08/04 01:57:51;;;;;;;5.15;2.60;;;;;;;;;;6277891;22;20143;-73
2022/08/04 02:00:21;;;;;;;7.53;2.90;;;;;;;;;;6304900;22;20246;-73
2022/08/04 02:02:47;;;;;;;6.95;2.58;;;;;;;;;;6304752;22;20147;-73
2022/08/04 02:05:14;;;;;;;4.72;2.72;;;;;;;;;;6305085;22;20151;-73
2022/08/04 02:07:46;;;;;;;7.25;2.58;;;;;;;;;;6305052;22;20155;-74
2022/08/04 02:10:14;;;;;;;6.57;3.10;;;;;;;;;;6304842;22;20665;-74
2022/08/04 02:12:39;;;;;;;4.30;2.35;;;;;;;;;;6304062;22;20155;-74
2022/08/04 02:15:04;;;;;;;3.97;2.33;;;;;;;;;;6304969;22;20140;-73
2022/08/04 02:17:42;;;;;;;4.95;2.72;;;;;;;;;;6276908;22;20427;-73
2022/08/04 02:20:11;;;;;;;8.05;2.97;;;;;;;;;;6277021;22;20167;-73
2022/08/04 02:22:43;;;;;;;6.97;2.75;;;;;;;;;;6302581;22;20220;-73
2022/08/04 02:25:10;;;;;;;4.72;3.38;;;;;;;;;;6304355;22;20148;-73
2022/08/04 02:27:54;;;;;;;6.65;2.85;;;;;;;;;;6305299;22;20143;-73
2022/08/04 02:30:19;;;;;;;4.25;2.38;;;;;;;;;;6304627;22;20183;-73
2022/08/04 02:32:45;;;;;;;5.93;3.50;;;;;;;;;;6304103;22;20187;-73
2022/08/04 02:35:14;;;;;;;5.20;3.17;;;;;;;;;;6304617;22;20146;-73
2022/08/04 02:37:45;;;;;;;4.20;2.55;;;;;;;;;;6305699;22;20144;-73
2022/08/04 02:40:11;;;;;;;5.07;2.95;;;;;;;;;;6304968;22;20676;-74
2022/08/04 02:42:36;;;;;;;5.95;2.75;;;;;;;;;;6304273;22;20143;-74
2022/08/04 02:45:01;;;;;;;5.05;3.17;;;;;;;;;;6305038;22;20167;-73
2022/08/04 02:47:27;;;;;;;5.68;3.28;;;;;;;;;;6304976;22;20614;-74
2022/08/04 02:49:52;;;;;;;7.03;3.72;;;;;;;;;;6304308;22;20163;-74
2022/08/04 02:52:18;;;;;;;4.32;2.80;;;;;;;;;;6304876;22;20144;-74
2022/08/04 02:54:45;;;;;;;4.40;3.50;;;;;;;;;;6304315;22;20194;-74
2022/08/04 02:57:11;;;;;;;5.57;2.97;;;;;;;;;;6304388;22;20182;-73
2022/08/04 02:59:45;;;;;;;7.85;3.30;;;;;;;;;;6304395;22;20144;-73
2022/08/04 03:02:11;;;;;;;5.28;3.25;;;;;;;;;;6304097;22;20159;-73
2022/08/04 03:04:39;;;;;;;7.88;3.80;;;;;;;;;;6303886;22;20157;-73
2022/08/04 03:07:04;;;;;;;4.78;3.05;;;;;;;;;;6304533;22;20158;-73
2022/08/04 03:09:29;;;;;;;4.13;3.42;;;;;;;;;;6302942;22;20139;-73
2022/08/04 03:12:13;;;;;;;4.40;2.93;;;;;;;;;;6303433;22;20416;-73
2022/08/04 03:14:38;;;;;;;5.25;3.30;;;;;;;;;;6304821;22;20443;-73
2022/08/04 03:17:17;;;;;;;4.82;3.22;;;;;;;;;;6304369;22;20168;-73
2022/08/04 03:19:42;;;;;;;3.78;2.78;;;;;;;;;;6304766;22;20135;-73
2022/08/04 03:22:22;;;;;;;7.57;3.17;;;;;;;;;;6303009;22;20183;-73
2022/08/04 03:24:56;;;;;;;7.47;3.15;;;;;;;;;;6304229;22;20352;-73
2022/08/04 03:27:24;;;;;;;6.75;3.75;;;;;;;;;;6304686;22;20585;-73
2022/08/04 03:30:10;;;;;;;7.80;3.35;;;;;;;;;;6301605;22;20140;-73
2022/08/04 03:33:08;;;;;;;7.07;3.97;;;;;;;;;;6214524;22;20496;-73
2022/08/04 03:35:33;;;;;;;5.82;3.67;;;;;;;;;;6235259;22;20156;-72
2022/08/04 03:38:10;;;;;;;7.70;3.55;;;;;;;;;;6305009;22;20264;-72
2022/08/04 03:40:41;;;;;;;7.10;3.80;;;;;;;;;;6303965;22;20167;-72
2022/08/04 03:43:15;;;;;;;4.18;3.70;;;;;;;;;;6304960;22;20151;-73
2022/08/04 03:45:40;;;;;;;4.82;3.42;;;;;;;;;;6304622;22;20143;-72
2022/08/04 03:48:12;;;;;;;6.47;4.40;;;;;;;;;;6304331;22;20154;-72
2022/08/04 03:53:07;;;;;;;7.10;4.13;;;;;;;;;;6304101;22;20424;-73
2022/08/04 03:53:40;;;;;;;7.22;4.70;;;;;;;;;;6304938;22;20615;-72
2022/08/04 03:56:08;;;;;;;7.65;4.90;;;;;;;;;;6306016;22;20565;-73
2022/08/04 03:59:05;;;;;;;9.90;4.78;;;;;;;;;;6278821;22;20148;-73
2022/08/04 04:01:30;;;;;;;5.70;4.68;;;;;;;;;;6306340;22;20556;-72
2022/08/04 04:04:13;;;;;;;11.73;4.63;;;;;;;;;;6306692;22;20148;-73
2022/08/04 04:06:38;;;;;;;11.35;5.43;;;;;;;;;;6306839;22;20405;-73
2022/08/04 04:09:22;;;;;;;7.53;4.82;;;;;;;;;;6306196;22;20143;-73
2022/08/04 04:11:48;;;;;;;8.85;5.00;;;;;;;;;;6304695;22;20317;-72
2022/08/04 04:14:40;;;;;;;9.23;4.90;;;;;;;;;;6306821;22;20653;-72
2022/08/04 04:17:05;;;;;;;8.10;4.55;;;;;;;;;;6305880;22;20401;-72
2022/08/04 04:19:30;;;;;;;7.57;5.43;;;;;;;;;;6306274;22;20175;-72
2022/08/04 04:22:06;;;;;;;7.70;5.45;;;;;;;;;;6306129;22;20890;-73
2022/08/04 04:24:34;;;;;;;8.13;4.88;;;;;;;;;;6306732;22;20136;-73
2022/08/04 04:27:20;;;;;;;5.05;4.15;;;;;;;;;;6279398;22;20156;-72
2022/08/04 04:29:59;;;;;;;7.57;5.47;;;;;;;;;;6278226;22;20230;-73
2022/08/04 04:32:47;;;;;;;7.93;5.43;;;;;;;;;;6306282;22;20139;-73
2022/08/04 04:35:21;;;;;;;13.27;6.10;;;;;;;;;;6303078;22;20147;-73
2022/08/04 04:37:46;;;;;;;10.52;5.05;;;;;;;;;;6305032;22;20147;-73
2022/08/04 04:40:28;;;;;;;7.37;4.90;;;;;;;;;;6305546;22;20221;-73
2022/08/04 04:43:04;;;;;;;6.82;4.70;;;;;;;;;;6305814;22;20353;-73
2022/08/04 04:45:32;;;;;;;8.23;5.13;;;;;;;;;;6306396;22;20135;-73
2022/08/04 04:48:05;;;;;;;8.23;4.32;;;;;;;;;;6305370;22;20152;-73
2022/08/04 04:50:52;;;;;;;8.45;5.00;;;;;;;;;;6305762;22;20631;-73
2022/08/04 04:53:27;;;;;;;6.75;5.18;;;;;;;;;;6306155;22;20136;-73
2022/08/04 04:56:12;;;;;;;7.15;4.20;;;;;;;;;;6305890;22;20150;-72
2022/08/04 04:58:38;;;;;;;6.70;4.70;;;;;;;;;;6304605;22;20165;-73
2022/08/04 05:01:09;;;;;;;7.95;5.10;;;;;;;;;;6305437;22;20563;-73
2022/08/04 05:03:34;;;;;;;8.30;4.25;;;;;;;;;;6306094;22;20162;-72
2022/08/04 05:06:05;;;;;;;8.30;4.60;;;;;;;;;;6305726;22;20180;-73
2022/08/04 05:08:39;;;;;;;7.15;4.03;;;;;;;;;;6306136;22;20364;-73
2022/08/04 05:11:24;;;;;;;7.22;4.63;;;;;;;;;;6305595;22;20175;-73
2022/08/04 05:13:55;;;;;;;6.90;5.07;;;;;;;;;;6305947;22;20124;-72
2022/08/04 05:16:25;;;;;;;8.38;4.75;;;;;;;;;;6305442;22;20193;-73
2022/08/04 05:19:06;;;;;;;5.20;4.50;;;;;;;;;;6305305;22;20467;-73
2022/08/04 05:21:38;;;;;;;7.18;4.20;;;;;;;;;;6305089;22;20208;-73
2022/08/04 05:24:05;;;;;;;7.18;4.93;;;;;;;;;;6305557;22;20163;-73
2022/08/04 05:26:33;;;;;;;6.68;3.83;;;;;;;;;;6305739;22;20175;-73
2022/08/04 05:29:01;;;;;;;5.70;4.03;;;;;;;;;;6305226;22;20148;-73
2022/08/04 05:31:35;;;;;;;12.82;4.88;;;;;;;;;;6305113;22;20183;-73
2022/08/04 05:34:06;;;;;;;6.82;4.80;;;;;;;;;;6278290;22;20661;-73
2022/08/04 05:36:48;;;;;;;12.15;4.68;;;;;;;;;;6304522;22;20136;-73
2022/08/04 05:39:16;;;;;;;6.72;4.38;;;;;;;;;;6304931;22;20139;-72
2022/08/04 05:41:42;;;;;;;8.32;4.90;;;;;;;;;;6303301;22;20164;-73
2022/08/04 05:44:08;;;;;;;11.32;5.15;;;;;;;;;;6304788;22;20172;-73
2022/08/04 05:46:34;;;;;;;4.75;3.92;;;;;;;;;;6305470;22;20504;-73
2022/08/04 05:48:59;;;;;;;8.13;4.25;;;;;;;;;;6305003;22;20154;-73
2022/08/04 05:51:25;;;;;;;10.50;4.53;;;;;;;;;;6305263;22;20180;-73
2022/08/04 05:53:51;;;;;;;5.18;4.68;;;;;;;;;;6304745;22;20167;-73
2022/08/04 05:56:17;;;;;;;7.70;4.38;;;;;;;;;;6304987;22;20139;-73
2022/08/04 05:58:43;;;;;;;7.63;3.92;;;;;;;;;;6304983;22;20144;-73
2022/08/04 06:01:09;;;;;;;7.90;4.03;;;;;;;;;;6305133;22;20194;-73
2022/08/04 06:03:36;;;;;;;8.00;4.55;;;;;;;;;;6305100;22;20158;-73
2022/08/04 06:06:02;;;;;;;6.43;4.18;;;;;;;;;;6305461;22;20174;-72
2022/08/04 06:08:28;;;;;;;6.32;3.60;;;;;;;;;;6277856;22;20607;-72
2022/08/04 06:10:56;;;;;;;6.13;4.45;;;;;;;;;;6303414;22;20604;-72
2022/08/04 06:13:25;;;;;;;6.80;4.35;;;;;;;;;;6305424;22;20579;-72
2022/08/04 06:15:52;;;;;;;8.15;4.43;;;;;;;;;;6304978;22;20144;-72
2022/08/04 06:18:18;;;;;;;6.78;4.00;;;;;;;;;;6303880;22;20594;-72
2022/08/04 06:20:44;;;;;;;7.35;3.85;;;;;;;;;;6304537;22;20174;-72
2022/08/04 06:23:12;;;;;;;10.02;4.30;;;;;;;;;;6305263;22;20155;-72
2022/08/04 06:25:43;;;;;;;9.35;5.38;;;;;;;;;;6304979;22;20617;-72
2022/08/04 06:28:09;;;;;;;7.60;4.30;;;;;;;;;;6304473;22;20632;-73
2022/08/04 06:30:35;;;;;;;8.18;4.65;;;;;;;;;;6305241;22;20254;-73
2022/08/04 06:33:02;;;;;;;6.90;4.10;;;;;;;;;;6304907;22;20143;-73
2022/08/04 06:35:27;;;;;;;7.07;4.43;;;;;;;;;;6304816;22;20152;-72
2022/08/04 06:37:53;;;;;;;6.53;3.90;;;;;;;;;;6305289;22;20222;-73
2022/08/04 06:40:20;;;;;;;7.93;4.07;;;;;;;;;;6276737;22;20172;-73
2022/08/04 06:42:46;;;;;;;8.63;3.67;;;;;;;;;;6304870;22;20154;-72
2022/08/04 06:45:13;;;;;;;5.50;3.85;;;;;;;;;;6304983;22;20156;-72
2022/08/04 06:47:39;;;;;;;7.10;3.25;;;;;;;;;;6303419;22;20158;-72
2022/08/04 06:50:05;;;;;;;8.65;3.42;;;;;;;;;;6304999;22;20396;-72
2022/08/04 06:52:30;;;;;;;5.82;3.33;;;;;;;;;;6276350;22;20151;-72
2022/08/04 06:54:56;;;;;;;3.53;2.83;;;;;;;;;;6304619;22;20154;-72
2022/08/04 06:57:26;;;;;;;4.43;2.30;;;;;;;;;;6304964;22;20154;-73
2022/08/04 06:59:59;;;;;;;8.18;2.65;;;;;;;;;;6305056;22;20212;-72
2022/08/04 07:02:26;;;;;;;4.03;2.10;;;;;;;;;;6302368;22;20587;-72
2022/08/04 07:04:51;;;;;;;9.38;2.72;;;;;;;;;;6304222;22;20148;-72
2022/08/04 07:07:17;;;;;;;4.57;2.30;;;;;;;;;;6305385;22;20162;-72
2022/08/04 07:09:42;;;;;;;7.05;2.25;;;;;;;;;;6303632;22;20604;-73
2022/08/04 07:12:08;;;;;;;5.13;2.45;;;;;;;;;;6304573;22;20205;-73
2022/08/04 07:14:35;;;;;;;6.43;2.55;;;;;;;;;;6304020;22;20222;-73
2022/08/04 07:17:02;;;;;;;8.52;2.50;;;;;;;;;;6304451;22;20704;-73
2022/08/04 07:19:27;;;;;;;4.15;1.98;;;;;;;;;;6304659;22;20179;-73
2022/08/04 07:21:52;;;;;;;6.63;2.43;;;;;;;;;;6276175;22;20309;-73
2022/08/04 07:24:17;;;;;;;4.95;2.45;;;;;;;;;;6304486;22;20361;-73
2022/08/04 07:26:42;;;;;;;6.73;2.40;;;;;;;;;;6304507;22;20542;-73
2022/08/04 07:29:09;;;;;;;7.57;2.10;;;;;;;;;;6305040;22;20368;-73
2022/08/04 07:31:35;;;;;;;8.52;2.78;;;;;;;;;;6306674;22;20412;-73
2022/08/04 07:34:01;;;;;;;9.18;2.30;;;;;;;;;;6306418;22;20140;-73
2022/08/04 07:36:26;;;;;;;4.47;2.13;;;;;;;;;;6306251;22;20140;-73
2022/08/04 07:38:51;;;;;;;4.93;2.40;;;;;;;;;;6306194;22;20471;-74
2022/08/04 07:41:22;;;;;;;5.03;2.37;;;;;;;;;;6306551;22;20181;-72
2022/08/04 07:43:47;;;;;;;7.10;2.63;;;;;;;;;;6306716;22;20388;-73
2022/08/04 07:46:13;;;;;;;6.68;2.90;;;;;;;;;;6307163;22;20151;-73
2022/08/04 07:48:38;;;;;;;5.30;2.42;;;;;;;;;;6305854;22;20151;-72
2022/08/04 07:51:03;;;;;;;10.50;2.90;;;;;;;;;;6306103;22;20180;-72
2022/08/04 07:53:29;;;;;;;5.95;2.65;;;;;;;;;;6305949;22;20183;-72
2022/08/04 07:55:54;;;;;;;9.93;2.70;;;;;;;;;;6306384;22;20140;-72
2022/08/04 07:58:19;;;;;;;8.00;2.75;;;;;;;;;;6306545;22;20151;-70
2022/08/04 08:00:46;;;;;;;7.03;2.60;;;;;;;;;;6306215;22;20641;-70
2022/08/04 08:03:12;;;;;;;5.65;2.47;;;;;;;;;;6304184;22;20413;-70
2022/08/04 08:05:38;;;;;;;5.78;2.42;;;;;;;;;;6305706;22;20201;-70
2022/08/04 08:08:03;;;;;;;6.25;2.03;;;;;;;;;;6301489;22;20152;-70
2022/08/04 08:10:28;;;;;;;5.72;2.90;;;;;;;;;;6305623;22;20190;-71
2022/08/04 08:12:53;;;;;;;5.97;2.20;;;;;;;;;;6305182;22;20144;-71
2022/08/04 08:15:19;;;;;;;5.50;2.05;;;;;;;;;;6305832;22;20147;-70
2022/08/04 08:17:44;;;;;;;6.25;2.17;;;;;;;;;;6306021;22;20151;-70
2022/08/04 08:20:10;;;;;;;5.90;1.98;;;;;;;;;;6304522;22;20167;-69
2022/08/04 08:22:35;;;;;;;3.33;1.60;;;;;;;;;;6304794;22;20217;-70
2022/08/04 08:25:01;;;;;;;5.35;2.00;;;;;;;;;;6277470;22;20156;-70
2022/08/04 08:27:26;;;;;;;7.07;2.10;;;;;;;;;;6278695;22;20158;-71
2022/08/04 08:29:52;;;;;;;5.95;1.83;;;;;;;;;;6276423;22;20155;-71
2022/08/04 08:32:17;;;;;;;3.60;1.17;;;;;;;;;;6306151;22;20147;-70
2022/08/04 08:34:44;;;;;;;4.27;1.60;;;;;;;;;;6305051;22;20140;-70
2022/08/04 08:37:17;;;;;;;4.57;1.63;;;;;;;;;;6279203;22;20369;-70
2022/08/04 08:40:01;;;;;;;6.28;1.35;;;;;;;;;;6305163;22;20128;-70
2022/08/04 08:42:48;;;;;;;4.47;1.50;;;;;;;;;;6305434;22;20590;-70
2022/08/04 08:45:28;;;;;;;5.78;1.60;;;;;;;;;;6304794;22;20238;-70
2022/08/04 08:47:53;;;;;;;3.58;1.30;;;;;;;;;;6278528;22;20533;-70
2022/08/04 08:50:30;;;;;;;2.08;1.45;;;;;;;;;;6305013;22;20176;-70
2022/08/04 08:52:56;;;;;;;4.55;1.92;;;;;;;;;;6305458;22;20182;-70
2022/08/04 08:55:51;;;;;;;4.90;1.42;;;;;;;;;;6305472;22;20140;-70
2022/08/04 08:58:25;;;;;;;3.97;1.30;;;;;;;;;;6195213;22;20154;-70
2022/08/04 09:00:55;;;;;;;4.85;1.73;;;;;;;;;;6304859;22;20243;-71
2022/08/04 09:03:23;;;;;;;4.40;1.42;;;;;;;;;;6304999;22;20569;-71
2022/08/04 09:05:54;;;;;;;3.00;1.27;;;;;;;;;;6304219;22;20151;-70
2022/08/04 09:08:25;;;;;;;2.90;1.40;;;;;;;;;;6304415;22;20148;-70
2022/08/04 09:10:56;;;;;;;2.60;1.17;;;;;;;;;;6302976;22;20187;-70
2022/08/04 09:13:26;;;;;;;2.95;1.10;;;;;;;;;;6305514;22;20132;-70
2022/08/04 09:15:57;;;;;;;2.45;1.00;;;;;;;;;;6304983;22;20148;-70
2022/08/04 09:18:25;;;;;;;2.55;1.00;;;;;;;;;;6304832;22;20147;-70
2022/08/04 09:20:55;;;;;;;3.17;1.15;;;;;;;;;;6304561;22;20168;-70
2022/08/04 09:23:36;;;;;;;3.85;1.00;;;;;;;;;;6304320;22;20242;-70
2022/08/04 09:26:04;;;;;;;4.82;0.80;;;;;;;;;;6304644;22;20144;-70
2022/08/04 09:28:34;;;;;;;1.60;0.80;;;;;;;;;;6305840;22;20230;-70
2022/08/04 09:31:05;;;;;;;2.78;1.10;;;;;;;;;;6303769;22;20175;-70
2022/08/04 09:33:40;;;;;;;3.63;0.90;;;;;;;;;;6304632;22;20508;-71
2022/08/04 09:36:12;;;;;;;3.03;0.90;;;;;;;;;;6304892;22;20563;-71
2022/08/04 09:38:46;;;;;;;2.25;1.08;;;;;;;;;;6305265;22;20150;-71
2022/08/04 09:41:16;;;;;;;2.50;1.05;;;;;;;;;;6303229;22;20197;-70
2022/08/04 09:44:06;;;;;;;3.08;0.95;;;;;;;;;;6305049;22;20209;-70
2022/08/04 09:46:50;;;;;;;1.73;1.00;;;;;;;;;;6304500;22;20135;-70
2022/08/04 09:49:18;;;;;;;3.20;1.63;;;;;;;;;;6304303;22;20193;-70
2022/08/04 09:51:49;;;;;;;1.73;0.98;;;;;;;;;;6304352;22;20183;-70
2022/08/04 09:54:22;;;;;;;2.85;1.40;;;;;;;;;;6276943;22;20235;-70
2022/08/04 09:56:50;;;;;;;2.17;1.20;;;;;;;;;;6304878;22;20590;-70
2022/08/04 09:59:26;;;;;;;4.03;1.52;;;;;;;;;;6305037;22;20723;-70
2022/08/04 10:01:58;;;;;;;3.92;1.40;;;;;;;;;;6304032;22;20175;-70
2022/08/04 10:04:28;;;;;;;3.33;1.27;;;;;;;;;;6304837;22;20144;-70
2022/08/04 10:07:11;;;;;;;3.80;1.33;;;;;;;;;;6303472;22;20171;-71
2022/08/04 10:09:55;;;;;;;3.13;1.23;;;;;;;;;;6304080;22;20143;-71
2022/08/04 10:12:27;;;;;;;3.75;1.00;;;;;;;;;;6303717;22;20159;-70
2022/08/04 10:14:56;;;;;;;2.58;1.58;;;;;;;;;;6303982;22;20198;-70
2022/08/04 10:17:37;;;;;;;5.32;1.50;;;;;;;;;;6304178;22;20147;-71
2022/08/04 10:20:20;;;;;;;1.85;1.10;;;;;;;;;;6304667;22;20595;-71
2022/08/04 10:22:56;;;;;;;4.45;1.45;;;;;;;;;;6303654;22;20152;-71
2022/08/04 10:25:57;;;;;;;2.30;1.33;;;;;;;;;;6304506;22;20132;-70
2022/08/04 10:28:23;;;;;;;4.63;1.48;;;;;;;;;;6179804;23;20599;-71
2022/08/04 10:30:53;;;;;;;3.40;1.40;;;;;;;;;;6277900;22;20645;-71
2022/08/04 10:33:27;;;;;;;2.58;1.40;;;;;;;;;;6303454;22;20144;-71
2022/08/04 10:35:56;;;;;;;5.68;1.48;;;;;;;;;;6303540;22;20218;-71
2022/08/04 10:38:28;;;;;;;3.85;1.20;;;;;;;;;;6304871;22;20518;-71
2022/08/04 10:41:10;;;;;;;2.00;1.48;;;;;;;;;;6304043;22;20645;-70
2022/08/04 10:43:38;;;;;;;4.32;1.55;;;;;;;;;;6304491;22;20186;-70
2022/08/04 10:46:06;;;;;;;7.53;1.35;;;;;;;;;;6304436;22;20138;-70
2022/08/04 10:48:49;;;;;;;2.05;1.23;;;;;;;;;;6304580;22;20143;-70
2022/08/04 10:51:32;;;;;;;3.72;1.52;;;;;;;;;;6303441;22;20176;-70
2022/08/04 10:54:21;;;;;;;2.45;0.95;;;;;;;;;;6302406;22;20124;-70
2022/08/04 10:56:52;;;;;;;5.32;1.40;;;;;;;;;;6286045;22;20147;-70
2022/08/04 10:59:27;;;;;;;5.20;1.40;;;;;;;;;;6276944;22;20144;-69
2022/08/04 11:01:54;;;;;;;3.15;1.23;;;;;;;;;;6303664;22;20249;-71
2022/08/04 11:04:24;;;;;;;2.55;1.38;;;;;;;;;;6304490;22;20580;-70
2022/08/04 11:06:51;;;;;;;2.58;0.90;;;;;;;;;;6304253;22;20154;-70
2022/08/04 11:09:17;;;;;;;2.72;1.17;;;;;;;;;;6304250;22;20552;-69
2022/08/04 11:11:44;;;;;;;1.90;1.15;;;;;;;;;;6303848;22;20203;-71
2022/08/04 11:14:15;;;;;;;2.17;1.10;;;;;;;;;;6304171;22;20148;-70
2022/08/04 11:16:46;;;;;;;2.38;1.10;;;;;;;;;;6276139;22;20152;-71
2022/08/04 11:19:11;;;;;;;2.65;1.15;;;;;;;;;;6304704;22;20128;-70
2022/08/04 11:21:40;;;;;;;2.23;1.00;;;;;;;;;;6304493;22;20452;-71
2022/08/04 11:24:17;;;;;;;2.28;1.00;;;;;;;;;;6305059;22;20164;-70
2022/08/04 11:26:57;;;;;;;2.15;0.80;;;;;;;;;;6304405;22;20181;-71
2022/08/04 11:29:33;;;;;;;1.08;0.73;;;;;;;;;;6303888;22;20146;-71
2022/08/04 11:32:01;;;;;;;1.70;1.05;;;;;;;;;;6303384;22;20256;-71
2022/08/04 11:34:26;;;;;;;5.65;1.70;;;;;;;;;;6304046;22;20218;-71
2022/08/04 11:36:59;;;;;;;2.47;1.30;;;;;;;;;;6304113;22;20171;-71
2022/08/04 11:39:35;;;;;;;2.65;1.30;;;;;;;;;;6304594;22;20193;-70
2022/08/04 11:42:05;;;;;;;1.48;0.88;;;;;;;;;;6303582;22;20190;-70
2022/08/04 11:44:33;;;;;;;2.28;0.98;;;;;;;;;;6304267;22;20607;-70
2022/08/04 11:47:02;;;;;;;4.28;1.17;;;;;;;;;;6304612;22;20156;-70
2022/08/04 11:49:40;;;;;;;1.83;1.20;;;;;;;;;;6302525;22;20144;-69
2022/08/04 11:52:07;;;;;;;3.42;0.93;;;;;;;;;;6302999;22;20642;-72
2022/08/04 11:54:33;;;;;;;2.95;1.08;;;;;;;;;;6303441;22;20146;-71
2022/08/04 11:56:58;;;;;;;2.22;1.25;;;;;;;;;;6303877;22;20147;-71
2022/08/04 11:59:23;;;;;;;2.50;1.17;;;;;;;;;;6303079;22;20226;-70
2022/08/04 12:01:52;;;;;;;2.08;0.90;;;;;;;;;;6303321;22;20167;-71
2022/08/04 12:04:27;;;;;;;3.63;1.25;;;;;;;;;;6303555;22;20230;-70
2022/08/04 12:07:09;;;;;;;2.90;1.42;;;;;;;;;;6303263;22;20462;-71
2022/08/04 12:09:49;;;;;;;2.75;1.33;;;;;;;;;;6303932;22;20132;-70
2022/08/04 12:12:19;;;;;;;2.50;1.20;;;;;;;;;;6303730;22;20185;-70
2022/08/04 12:15:03;;;;;;;4.00;1.00;;;;;;;;;;6304798;22;20143;-70
2022/08/04 12:17:39;;;;;;;1.60;0.93;;;;;;;;;;6303683;22;20143;-70
2022/08/04 12:20:06;;;;;;;3.60;1.27;;;;;;;;;;6305839;22;20145;-70
2022/08/04 12:22:34;;;;;;;1.77;1.10;;;;;;;;;;6305138;22;20166;-70
2022/08/04 12:25:04;;;;;;;2.60;1.40;;;;;;;;;;6305575;22;20588;-69
2022/08/04 12:27:40;;;;;;;3.88;1.67;;;;;;;;;;6305929;22;20226;-70
2022/08/04 12:30:06;;;;;;;3.42;1.50;;;;;;;;;;6306362;22;20500;-70
2022/08/04 12:32:37;;;;;;;2.10;1.58;;;;;;;;;;6305233;22;20278;-69
2022/08/04 12:35:15;;;;;;;3.35;1.30;;;;;;;;;;6305851;22;20450;-70
2022/08/04 12:37:45;;;;;;;2.00;1.17;;;;;;;;;;6305544;22;20146;-69
2022/08/04 12:40:13;;;;;;;4.10;1.30;;;;;;;;;;6304728;22;20175;-70
2022/08/04 12:42:38;;;;;;;3.67;1.10;;;;;;;;;;6305182;22;20143;-69
2022/08/04 12:45:06;;;;;;;3.15;1.27;;;;;;;;;;6305836;22;20162;-68
2022/08/04 12:47:33;;;;;;;3.05;1.42;;;;;;;;;;6305409;22;20150;-70
2022/08/04 12:50:00;;;;;;;3.30;1.35;;;;;;;;;;6305686;22;20146;-70
2022/08/04 12:52:25;;;;;;;3.88;1.23;;;;;;;;;;6305886;22;20147;-70
2022/08/04 12:54:51;;;;;;;1.10;0.90;;;;;;;;;;6304613;22;20525;-69
2022/08/04 12:57:17;;;;;;;3.13;1.20;;;;;;;;;;6305778;22;20155;-70
2022/08/04 12:59:42;;;;;;;3.95;1.15;;;;;;;;;;6304698;22;20146;-70
2022/08/04 13:02:13;;;;;;;1.98;1.08;;;;;;;;;;6305167;22;20171;-69
2022/08/04 13:04:41;;;;;;;4.47;1.00;;;;;;;;;;6305519;22;20146;-70
2022/08/04 13:07:08;;;;;;;3.30;1.05;;;;;;;;;;6304857;22;20154;-70
2022/08/04 13:09:36;;;;;;;2.88;1.15;;;;;;;;;;6306014;22;20143;-69
2022/08/04 13:12:03;;;;;;;3.05;1.40;;;;;;;;;;6304588;22;20225;-69
2022/08/04 13:14:34;;;;;;;1.15;1.00;;;;;;;;;;6303824;22;20158;-69
2022/08/04 13:17:00;;;;;;;2.33;1.08;;;;;;;;;;6305134;22;20616;-70
2022/08/04 13:19:26;;;;;;;4.43;0.98;;;;;;;;;;6278646;22;20147;-70
2022/08/04 13:21:52;;;;;;;2.15;1.02;;;;;;;;;;6303997;22;20173;-70
2022/08/04 13:24:18;;;;;;;2.92;1.15;;;;;;;;;;6305499;22;20200;-68
2022/08/04 13:26:49;;;;;;;3.72;1.10;;;;;;;;;;6305605;22;20150;-70
2022/08/04 13:29:14;;;;;;;1.90;0.90;;;;;;;;;;6305270;22;20143;-70
2022/08/04 13:31:42;;;;;;;2.25;1.15;;;;;;;;;;6304827;22;20170;-70
2022/08/04 13:34:08;;;;;;;4.22;1.27;;;;;;;;;;6305339;22;20213;-70
2022/08/04 13:36:34;;;;;;;1.40;0.95;;;;;;;;;;6305321;22;20155;-70
2022/08/04 13:39:20;;;;;;;3.53;0.90;;;;;;;;;;6304318;22;20139;-70
2022/08/04 13:41:50;;;;;;;4.25;0.98;;;;;;;;;;6304310;22;20258;-70
2022/08/04 13:44:17;;;;;;;2.63;0.90;;;;;;;;;;6305412;22;20162;-69
2022/08/04 13:46:49;;;;;;;10.70;1.50;;;;;;;;;;6304970;22;20158;-69
2022/08/04 13:49:17;;;;;;;3.55;0.98;;;;;;;;;;6304683;22;20633;-69
2022/08/04 13:52:02;;;;;;;2.55;1.10;;;;;;;;;;6277450;22;20261;-69
2022/08/04 13:54:54;;;;;;;2.63;0.82;;;;;;;;;;6304860;22;20139;-70
2022/08/04 13:57:27;;;;;;;1.95;1.05;;;;;;;;;;6297795;22;20157;-69
2022/08/04 13:59:53;;;;;;;5.40;1.60;;;;;;;;;;6305385;22;20177;-69
2022/08/04 14:02:31;;;;;;;3.60;1.00;;;;;;;;;;6304130;22;20185;-70
2022/08/04 14:05:00;;;;;;;1.90;0.80;;;;;;;;;;6305096;22;20139;-69
2022/08/04 14:07:26;;;;;;;2.33;0.80;;;;;;;;;;6303586;22;20217;-68
2022/08/04 14:09:52;;;;;;;2.58;1.08;;;;;;;;;;6304509;22;20173;-68
2022/08/04 14:12:17;;;;;;;3.72;1.00;;;;;;;;;;6303300;22;20242;-67
2022/08/04 14:14:49;;;;;;;2.00;0.90;;;;;;;;;;6304453;22;20627;-68
2022/08/04 14:17:15;;;;;;;1.45;0.80;;;;;;;;;;6304455;22;20688;-69
2022/08/04 14:19:49;;;;;;;2.17;1.00;;;;;;;;;;6304441;22;20602;-69
2022/08/04 14:22:27;;;;;;;2.60;1.25;;;;;;;;;;6303702;22;20163;-69
2022/08/04 14:25:03;;;;;;;1.70;0.93;;;;;;;;;;6304520;22;20602;-69
2022/08/04 14:27:29;;;;;;;2.70;0.88;;;;;;;;;;6304046;22;20525;-69
2022/08/04 14:29:54;;;;;;;2.92;1.17;;;;;;;;;;6304351;22;20558;-71
2022/08/04 14:32:19;;;;;;;2.58;0.98;;;;;;;;;;6304404;22;20171;-69
2022/08/04 14:34:45;;;;;;;2.67;1.05;;;;;;;;;;6304618;22;20139;-69
2022/08/04 14:37:12;;;;;;;1.65;0.80;;;;;;;;;;6303604;22;20153;-70
2022/08/04 14:39:37;;;;;;;3.33;1.00;;;;;;;;;;6277189;22;20201;-70
2022/08/04 14:42:03;;;;;;;2.40;0.80;;;;;;;;;;6304137;22;20163;-70
2022/08/04 14:44:30;;;;;;;3.22;1.00;;;;;;;;;;6304288;22;20225;-71
2022/08/04 14:46:56;;;;;;;3.40;1.00;;;;;;;;;;6304287;22;20179;-72
2022/08/04 14:49:21;;;;;;;2.47;1.33;;;;;;;;;;6277048;22;20175;-74
2022/08/04 14:51:54;;;;;;;4.30;1.20;;;;;;;;;;6303685;22;20179;-71
2022/08/04 14:54:45;;;;;;;2.67;1.10;;;;;;;;;;6304117;22;20144;-71
2022/08/04 14:57:14;;;;;;;3.42;1.10;;;;;;;;;;6297787;22;20498;-70
2022/08/04 14:59:43;;;;;;;2.35;0.90;;;;;;;;;;6303571;22;20144;-71
2022/08/04 15:02:09;;;;;;;3.80;0.90;;;;;;;;;;6303583;22;20261;-70
2022/08/04 15:04:35;;;;;;;3.97;1.10;;;;;;;;;;6303556;22;20367;-70